sensor_id;sensor_type;location;lat;lon;timestamp;P1;durP1;ratioP1;P2;durP2;ratioP2
34403;SDS011;23116;47.660;9.126;2023-11-18T00:01:33;0.80;;;0.80;;
34403;SDS011;23116;47.660;9.126;2023-11-18T00:04:00;1.00;;;0.95;;
34403;SDS011;23116;47.660;9.126;2023-11-18T00:06:27;1.15;;;1.05;;
34403;SDS011;23116;47.660;9.126;2023-11-18T00:08:54;0.80;;;0.77;;
34403;SDS011;23116;47.660;9.126;2023-11-18T00:11:20;1.10;;;1.10;;
34403;SDS011;23116;47.660;9.126;2023-11-18T00:13:49;1.05;;;1.05;;
34403;SDS011;23116;47.660;9.126;2023-11-18T00:16:15;1.33;;;1.23;;
34403;SDS011;23116;47.660;9.126;2023-11-18T00:18:42;1.00;;;1.00;;
34403;SDS011;23116;47.660;9.126;2023-11-18T00:21:09;1.02;;;1.02;;
34403;SDS011;23116;47.660;9.126;2023-11-18T00:23:35;1.60;;;1.10;;
34403;SDS011;23116;47.660;9.126;2023-11-18T00:26:02;0.95;;;0.90;;
34403;SDS011;23116;47.660;9.126;2023-11-18T00:28:32;1.10;;;1.00;;
34403;SDS011;23116;47.660;9.126;2023-11-18T00:30:58;1.13;;;0.80;;
34403;SDS011;23116;47.660;9.126;2023-11-18T00:33:25;0.90;;;0.90;;
34403;SDS011;23116;47.660;9.126;2023-11-18T00:35:52;0.70;;;0.70;;
34403;SDS011;23116;47.660;9.126;2023-11-18T00:38:19;2.00;;;0.90;;
34403;SDS011;23116;47.660;9.126;2023-11-18T00:40:46;0.70;;;0.70;;
34403;SDS011;23116;47.660;9.126;2023-11-18T00:43:12;0.80;;;0.80;;
34403;SDS011;23116;47.660;9.126;2023-11-18T00:45:39;0.82;;;0.82;;
34403;SDS011;23116;47.660;9.126;2023-11-18T00:48:06;1.10;;;0.85;;
34403;SDS011;23116;47.660;9.126;2023-11-18T00:50:33;1.02;;;1.00;;
34403;SDS011;23116;47.660;9.126;2023-11-18T00:52:59;1.10;;;1.10;;
34403;SDS011;23116;47.660;9.126;2023-11-18T00:55:26;2.03;;;1.40;;
34403;SDS011;23116;47.660;9.126;2023-11-18T00:57:53;1.40;;;1.30;;
34403;SDS011;23116;47.660;9.126;2023-11-18T01:00:19;1.75;;;1.65;;
34403;SDS011;23116;47.660;9.126;2023-11-18T01:02:47;1.80;;;1.70;;
34403;SDS011;23116;47.660;9.126;2023-11-18T01:05:15;1.73;;;1.63;;
34403;SDS011;23116;47.660;9.126;2023-11-18T01:07:41;1.50;;;1.40;;
34403;SDS011;23116;47.660;9.126;2023-11-18T01:10:08;3.22;;;1.20;;
34403;SDS011;23116;47.660;9.126;2023-11-18T01:12:36;2.38;;;1.50;;
34403;SDS011;23116;47.660;9.126;2023-11-18T01:15:02;1.63;;;1.52;;
34403;SDS011;23116;47.660;9.126;2023-11-18T01:17:30;1.55;;;1.45;;
34403;SDS011;23116;47.660;9.126;2023-11-18T01:19:57;1.27;;;1.20;;
34403;SDS011;23116;47.660;9.126;2023-11-18T01:22:24;1.30;;;1.20;;
34403;SDS011;23116;47.660;9.126;2023-11-18T01:24:51;1.30;;;1.20;;
34403;SDS011;23116;47.660;9.126;2023-11-18T01:27:17;1.10;;;1.10;;
34403;SDS011;23116;47.660;9.126;2023-11-18T01:29:45;1.70;;;1.60;;
34403;SDS011;23116;47.660;9.126;2023-11-18T01:32:14;1.63;;;1.52;;
34403;SDS011;23116;47.660;9.126;2023-11-18T01:34:42;1.10;;;1.08;;
34403;SDS011;23116;47.660;9.126;2023-11-18T01:37:09;2.55;;;1.63;;
34403;SDS011;23116;47.660;9.126;2023-11-18T01:39:36;1.50;;;1.40;;
34403;SDS011;23116;47.660;9.126;2023-11-18T01:42:03;2.15;;;1.40;;
34403;SDS011;23116;47.660;9.126;2023-11-18T01:44:30;1.58;;;1.48;;
34403;SDS011;23116;47.660;9.126;2023-11-18T01:46:59;1.85;;;1.48;;
34403;SDS011;23116;47.660;9.126;2023-11-18T01:49:30;1.45;;;1.35;;
34403;SDS011;23116;47.660;9.126;2023-11-18T01:52:05;1.08;;;1.08;;
34403;SDS011;23116;47.660;9.126;2023-11-18T01:54:33;1.40;;;1.30;;
34403;SDS011;23116;47.660;9.126;2023-11-18T01:57:04;1.00;;;1.00;;
34403;SDS011;23116;47.660;9.126;2023-11-18T01:59:32;1.50;;;1.40;;
34403;SDS011;23116;47.660;9.126;2023-11-18T02:01:59;1.90;;;1.70;;
34403;SDS011;23116;47.660;9.126;2023-11-18T02:04:27;1.85;;;1.75;;
34403;SDS011;23116;47.660;9.126;2023-11-18T02:06:54;1.70;;;1.60;;
34403;SDS011;23116;47.660;9.126;2023-11-18T02:09:21;1.58;;;1.48;;
34403;SDS011;23116;47.660;9.126;2023-11-18T02:14:31;1.70;;;1.60;;
34403;SDS011;23116;47.660;9.126;2023-11-18T02:17:02;1.70;;;1.60;;
34403;SDS011;23116;47.660;9.126;2023-11-18T02:19:29;1.48;;;1.38;;
34403;SDS011;23116;47.660;9.126;2023-11-18T02:21:56;1.48;;;1.38;;
34403;SDS011;23116;47.660;9.126;2023-11-18T02:27:17;2.17;;;1.50;;
34403;SDS011;23116;47.660;9.126;2023-11-18T02:29:45;1.23;;;1.13;;
34403;SDS011;23116;47.660;9.126;2023-11-18T02:32:16;1.60;;;1.50;;
34403;SDS011;23116;47.660;9.126;2023-11-18T02:37:27;1.67;;;1.58;;
34403;SDS011;23116;47.660;9.126;2023-11-18T02:40:00;1.60;;;1.50;;
34403;SDS011;23116;47.660;9.126;2023-11-18T02:42:35;1.40;;;1.20;;
34403;SDS011;23116;47.660;9.126;2023-11-18T02:45:03;1.73;;;1.63;;
34403;SDS011;23116;47.660;9.126;2023-11-18T02:47:33;1.73;;;1.48;;
34403;SDS011;23116;47.660;9.126;2023-11-18T02:50:00;1.45;;;1.35;;
34403;SDS011;23116;47.660;9.126;2023-11-18T02:52:46;1.60;;;1.50;;
34403;SDS011;23116;47.660;9.126;2023-11-18T02:55:13;1.60;;;1.50;;
34403;SDS011;23116;47.660;9.126;2023-11-18T02:57:40;1.67;;;1.58;;
34403;SDS011;23116;47.660;9.126;2023-11-18T03:00:07;1.63;;;1.52;;
34403;SDS011;23116;47.660;9.126;2023-11-18T03:02:43;2.13;;;1.58;;
34403;SDS011;23116;47.660;9.126;2023-11-18T03:05:12;1.85;;;1.75;;
34403;SDS011;23116;47.660;9.126;2023-11-18T03:07:49;1.60;;;1.50;;
34403;SDS011;23116;47.660;9.126;2023-11-18T03:10:18;1.73;;;1.42;;
34403;SDS011;23116;47.660;9.126;2023-11-18T03:15:19;1.70;;;1.60;;
34403;SDS011;23116;47.660;9.126;2023-11-18T03:17:49;1.48;;;1.38;;
34403;SDS011;23116;47.660;9.126;2023-11-18T03:20:17;1.17;;;1.17;;
34403;SDS011;23116;47.660;9.126;2023-11-18T03:22:48;1.13;;;1.10;;
34403;SDS011;23116;47.660;9.126;2023-11-18T03:25:17;1.45;;;1.35;;
34403;SDS011;23116;47.660;9.126;2023-11-18T03:27:47;1.10;;;1.05;;
34403;SDS011;23116;47.660;9.126;2023-11-18T03:30:13;1.45;;;1.35;;
34403;SDS011;23116;47.660;9.126;2023-11-18T03:32:42;1.23;;;1.13;;
34403;SDS011;23116;47.660;9.126;2023-11-18T03:35:08;1.55;;;1.30;;
34403;SDS011;23116;47.660;9.126;2023-11-18T03:37:35;1.30;;;1.10;;
34403;SDS011;23116;47.660;9.126;2023-11-18T03:40:12;0.77;;;0.77;;
34403;SDS011;23116;47.660;9.126;2023-11-18T03:42:41;1.00;;;1.00;;
34403;SDS011;23116;47.660;9.126;2023-11-18T03:45:08;1.05;;;1.05;;
34403;SDS011;23116;47.660;9.126;2023-11-18T03:47:35;1.20;;;1.10;;
34403;SDS011;23116;47.660;9.126;2023-11-18T03:50:02;0.90;;;0.90;;
34403;SDS011;23116;47.660;9.126;2023-11-18T03:52:30;1.13;;;1.13;;
34403;SDS011;23116;47.660;9.126;2023-11-18T03:54:56;0.70;;;0.70;;
34403;SDS011;23116;47.660;9.126;2023-11-18T03:57:23;1.20;;;1.10;;
34403;SDS011;23116;47.660;9.126;2023-11-18T03:59:50;1.08;;;0.95;;
34403;SDS011;23116;47.660;9.126;2023-11-18T04:02:17;1.48;;;1.20;;
34403;SDS011;23116;47.660;9.126;2023-11-18T04:04:43;0.95;;;0.85;;
34403;SDS011;23116;47.660;9.126;2023-11-18T04:07:10;1.08;;;1.00;;
34403;SDS011;23116;47.660;9.126;2023-11-18T04:09:36;0.85;;;0.85;;
34403;SDS011;23116;47.660;9.126;2023-11-18T04:12:06;0.90;;;0.90;;
34403;SDS011;23116;47.660;9.126;2023-11-18T04:14:33;0.82;;;0.70;;
34403;SDS011;23116;47.660;9.126;2023-11-18T04:16:59;1.35;;;1.10;;
34403;SDS011;23116;47.660;9.126;2023-11-18T04:19:26;0.90;;;0.90;;
34403;SDS011;23116;47.660;9.126;2023-11-18T04:21:52;1.00;;;1.00;;
34403;SDS011;23116;47.660;9.126;2023-11-18T04:24:19;1.00;;;1.00;;
34403;SDS011;23116;47.660;9.126;2023-11-18T04:26:45;1.17;;;1.08;;
34403;SDS011;23116;47.660;9.126;2023-11-18T04:29:13;1.05;;;0.95;;
34403;SDS011;23116;47.660;9.126;2023-11-18T04:31:40;1.40;;;1.30;;
34403;SDS011;23116;47.660;9.126;2023-11-18T04:34:06;2.35;;;1.08;;
34403;SDS011;23116;47.660;9.126;2023-11-18T04:36:33;1.27;;;1.17;;
34403;SDS011;23116;47.660;9.126;2023-11-18T04:39:00;1.23;;;1.00;;
34403;SDS011;23116;47.660;9.126;2023-11-18T04:41:28;1.40;;;1.30;;
34403;SDS011;23116;47.660;9.126;2023-11-18T04:43:56;0.90;;;0.90;;
34403;SDS011;23116;47.660;9.126;2023-11-18T04:46:23;1.10;;;1.00;;
34403;SDS011;23116;47.660;9.126;2023-11-18T04:48:50;1.20;;;1.10;;
34403;SDS011;23116;47.660;9.126;2023-11-18T04:51:18;1.70;;;1.17;;
34403;SDS011;23116;47.660;9.126;2023-11-18T04:53:45;1.00;;;1.00;;
34403;SDS011;23116;47.660;9.126;2023-11-18T04:56:12;1.40;;;1.30;;
34403;SDS011;23116;47.660;9.126;2023-11-18T04:58:41;1.30;;;1.20;;
34403;SDS011;23116;47.660;9.126;2023-11-18T05:01:11;1.45;;;1.20;;
34403;SDS011;23116;47.660;9.126;2023-11-18T05:03:39;2.88;;;1.50;;
34403;SDS011;23116;47.660;9.126;2023-11-18T05:06:05;1.98;;;1.38;;
34403;SDS011;23116;47.660;9.126;2023-11-18T05:08:33;1.75;;;1.23;;
34403;SDS011;23116;47.660;9.126;2023-11-18T05:11:01;1.42;;;1.33;;
34403;SDS011;23116;47.660;9.126;2023-11-18T05:13:29;1.00;;;1.00;;
34403;SDS011;23116;47.660;9.126;2023-11-18T05:15:57;2.17;;;1.30;;
34403;SDS011;23116;47.660;9.126;2023-11-18T05:18:24;2.85;;;2.08;;
34403;SDS011;23116;47.660;9.126;2023-11-18T05:20:54;5.07;;;3.70;;
34403;SDS011;23116;47.660;9.126;2023-11-18T05:23:22;2.80;;;2.40;;
34403;SDS011;23116;47.660;9.126;2023-11-18T05:25:49;2.17;;;1.98;;
34403;SDS011;23116;47.660;9.126;2023-11-18T05:28:15;1.83;;;1.73;;
34403;SDS011;23116;47.660;9.126;2023-11-18T05:30:42;2.30;;;1.60;;
34403;SDS011;23116;47.660;9.126;2023-11-18T05:33:09;1.35;;;1.25;;
34403;SDS011;23116;47.660;9.126;2023-11-18T05:35:40;1.70;;;1.60;;
34403;SDS011;23116;47.660;9.126;2023-11-18T05:38:13;1.42;;;1.25;;
34403;SDS011;23116;47.660;9.126;2023-11-18T05:40:47;3.10;;;2.30;;
34403;SDS011;23116;47.660;9.126;2023-11-18T05:43:22;2.33;;;2.13;;
34403;SDS011;23116;47.660;9.126;2023-11-18T05:46:01;2.65;;;2.28;;
34403;SDS011;23116;47.660;9.126;2023-11-18T05:48:49;2.45;;;2.25;;
34403;SDS011;23116;47.660;9.126;2023-11-18T05:51:20;2.15;;;1.98;;
34403;SDS011;23116;47.660;9.126;2023-11-18T05:53:51;2.50;;;2.30;;
34403;SDS011;23116;47.660;9.126;2023-11-18T05:56:18;2.20;;;2.03;;
34403;SDS011;23116;47.660;9.126;2023-11-18T05:58:47;2.60;;;2.40;;
34403;SDS011;23116;47.660;9.126;2023-11-18T06:01:14;2.53;;;2.25;;
34403;SDS011;23116;47.660;9.126;2023-11-18T06:03:41;2.08;;;1.88;;
34403;SDS011;23116;47.660;9.126;2023-11-18T06:06:09;2.30;;;2.10;;
34403;SDS011;23116;47.660;9.126;2023-11-18T06:08:39;2.35;;;2.13;;
34403;SDS011;23116;47.660;9.126;2023-11-18T06:11:13;2.45;;;2.25;;
34403;SDS011;23116;47.660;9.126;2023-11-18T06:13:48;2.70;;;2.45;;
34403;SDS011;23116;47.660;9.126;2023-11-18T06:16:17;2.20;;;2.00;;
34403;SDS011;23116;47.660;9.126;2023-11-18T06:18:53;2.72;;;2.28;;
34403;SDS011;23116;47.660;9.126;2023-11-18T06:21:24;2.25;;;1.92;;
34403;SDS011;23116;47.660;9.126;2023-11-18T06:23:55;4.28;;;2.20;;
34403;SDS011;23116;47.660;9.126;2023-11-18T06:26:26;2.40;;;2.20;;
34403;SDS011;23116;47.660;9.126;2023-11-18T06:28:54;2.30;;;2.10;;
34403;SDS011;23116;47.660;9.126;2023-11-18T06:31:21;2.20;;;2.03;;
34403;SDS011;23116;47.660;9.126;2023-11-18T06:33:49;2.10;;;2.00;;
34403;SDS011;23116;47.660;9.126;2023-11-18T06:38:43;2.38;;;2.17;;
34403;SDS011;23116;47.660;9.126;2023-11-18T06:41:12;2.25;;;2.10;;
34403;SDS011;23116;47.660;9.126;2023-11-18T06:43:40;2.38;;;2.17;;
34403;SDS011;23116;47.660;9.126;2023-11-18T06:46:18;2.40;;;2.03;;
34403;SDS011;23116;47.660;9.126;2023-11-18T06:48:57;4.60;;;2.65;;
34403;SDS011;23116;47.660;9.126;2023-11-18T06:51:24;2.42;;;2.22;;
34403;SDS011;23116;47.660;9.126;2023-11-18T06:53:55;4.25;;;2.90;;
34403;SDS011;23116;47.660;9.126;2023-11-18T06:56:23;3.00;;;2.80;;
34403;SDS011;23116;47.660;9.126;2023-11-18T06:58:50;3.42;;;3.13;;
34403;SDS011;23116;47.660;9.126;2023-11-18T07:01:17;3.33;;;3.03;;
34403;SDS011;23116;47.660;9.126;2023-11-18T07:03:44;3.58;;;3.28;;
34403;SDS011;23116;47.660;9.126;2023-11-18T07:06:17;2.92;;;2.72;;
34403;SDS011;23116;47.660;9.126;2023-11-18T07:09:03;3.50;;;3.20;;
34403;SDS011;23116;47.660;9.126;2023-11-18T07:11:38;2.92;;;2.72;;
34403;SDS011;23116;47.660;9.126;2023-11-18T07:14:11;3.35;;;3.05;;
34403;SDS011;23116;47.660;9.126;2023-11-18T07:16:40;3.88;;;2.40;;
34403;SDS011;23116;47.660;9.126;2023-11-18T07:19:08;2.63;;;2.42;;
34403;SDS011;23116;47.660;9.126;2023-11-18T07:21:42;2.67;;;2.47;;
34403;SDS011;23116;47.660;9.126;2023-11-18T07:24:09;2.70;;;2.50;;
34403;SDS011;23116;47.660;9.126;2023-11-18T07:26:36;2.65;;;2.45;;
34403;SDS011;23116;47.660;9.126;2023-11-18T07:29:03;3.03;;;2.72;;
34403;SDS011;23116;47.660;9.126;2023-11-18T07:31:32;3.72;;;2.67;;
34403;SDS011;23116;47.660;9.126;2023-11-18T07:34:01;3.22;;;2.92;;
34403;SDS011;23116;47.660;9.126;2023-11-18T07:36:30;3.70;;;3.40;;
34403;SDS011;23116;47.660;9.126;2023-11-18T07:38:58;3.97;;;3.63;;
34403;SDS011;23116;47.660;9.126;2023-11-18T07:41:28;4.13;;;3.72;;
34403;SDS011;23116;47.660;9.126;2023-11-18T07:43:57;4.90;;;4.40;;
34403;SDS011;23116;47.660;9.126;2023-11-18T07:46:24;3.88;;;3.58;;
34403;SDS011;23116;47.660;9.126;2023-11-18T07:48:51;3.80;;;3.20;;
34403;SDS011;23116;47.660;9.126;2023-11-18T07:51:19;3.35;;;3.05;;
34403;SDS011;23116;47.660;9.126;2023-11-18T07:53:49;3.03;;;2.75;;
34403;SDS011;23116;47.660;9.126;2023-11-18T07:56:17;4.13;;;3.72;;
34403;SDS011;23116;47.660;9.126;2023-11-18T07:58:46;3.67;;;3.08;;
34403;SDS011;23116;47.660;9.126;2023-11-18T08:01:12;4.05;;;3.63;;
34403;SDS011;23116;47.660;9.126;2023-11-18T08:03:43;3.75;;;3.30;;
34403;SDS011;23116;47.660;9.126;2023-11-18T08:06:12;4.30;;;3.90;;
34403;SDS011;23116;47.660;9.126;2023-11-18T08:08:39;4.22;;;3.83;;
34403;SDS011;23116;47.660;9.126;2023-11-18T08:11:06;4.53;;;4.20;;
34403;SDS011;23116;47.660;9.126;2023-11-18T08:13:37;4.55;;;4.15;;
34403;SDS011;23116;47.660;9.126;2023-11-18T08:16:03;4.10;;;3.80;;
34403;SDS011;23116;47.660;9.126;2023-11-18T08:18:33;3.08;;;2.78;;
34403;SDS011;23116;47.660;9.126;2023-11-18T08:21:00;3.65;;;3.35;;
34403;SDS011;23116;47.660;9.126;2023-11-18T08:23:28;4.03;;;3.70;;
34403;SDS011;23116;47.660;9.126;2023-11-18T08:25:54;3.65;;;3.35;;
34403;SDS011;23116;47.660;9.126;2023-11-18T08:28:21;4.10;;;3.55;;
34403;SDS011;23116;47.660;9.126;2023-11-18T08:30:48;3.22;;;2.88;;
34403;SDS011;23116;47.660;9.126;2023-11-18T08:33:16;3.15;;;2.92;;
34403;SDS011;23116;47.660;9.126;2023-11-18T08:35:44;3.78;;;3.47;;
34403;SDS011;23116;47.660;9.126;2023-11-18T08:38:11;3.85;;;3.13;;
34403;SDS011;23116;47.660;9.126;2023-11-18T08:40:38;4.10;;;2.88;;
34403;SDS011;23116;47.660;9.126;2023-11-18T08:43:05;3.60;;;3.30;;
34403;SDS011;23116;47.660;9.126;2023-11-18T08:45:32;2.92;;;2.72;;
34403;SDS011;23116;47.660;9.126;2023-11-18T08:48:00;3.42;;;3.13;;
34403;SDS011;23116;47.660;9.126;2023-11-18T08:50:36;2.85;;;2.65;;
34403;SDS011;23116;47.660;9.126;2023-11-18T08:53:06;2.90;;;2.70;;
34403;SDS011;23116;47.660;9.126;2023-11-18T08:55:34;3.50;;;3.20;;
34403;SDS011;23116;47.660;9.126;2023-11-18T08:58:04;3.30;;;3.10;;
34403;SDS011;23116;47.660;9.126;2023-11-18T09:00:43;3.28;;;2.97;;
34403;SDS011;23116;47.660;9.126;2023-11-18T09:03:30;3.40;;;3.10;;
34403;SDS011;23116;47.660;9.126;2023-11-18T09:06:00;2.50;;;2.28;;
34403;SDS011;23116;47.660;9.126;2023-11-18T09:08:30;2.95;;;2.75;;
34403;SDS011;23116;47.660;9.126;2023-11-18T09:11:01;3.20;;;3.00;;
34403;SDS011;23116;47.660;9.126;2023-11-18T09:13:30;3.08;;;2.83;;
34403;SDS011;23116;47.660;9.126;2023-11-18T09:16:00;3.50;;;3.20;;
34403;SDS011;23116;47.660;9.126;2023-11-18T09:18:29;3.22;;;3.03;;
34403;SDS011;23116;47.660;9.126;2023-11-18T09:20:58;3.30;;;3.00;;
34403;SDS011;23116;47.660;9.126;2023-11-18T09:23:26;3.35;;;3.03;;
34403;SDS011;23116;47.660;9.126;2023-11-18T09:25:55;3.40;;;3.10;;
34403;SDS011;23116;47.660;9.126;2023-11-18T09:28:25;3.17;;;2.95;;
34403;SDS011;23116;47.660;9.126;2023-11-18T09:30:55;3.40;;;3.10;;
34403;SDS011;23116;47.660;9.126;2023-11-18T09:33:26;2.63;;;2.42;;
34403;SDS011;23116;47.660;9.126;2023-11-18T09:36:03;3.05;;;2.85;;
34403;SDS011;23116;47.660;9.126;2023-11-18T09:38:36;3.83;;;3.50;;
34403;SDS011;23116;47.660;9.126;2023-11-18T09:41:08;3.20;;;2.92;;
34403;SDS011;23116;47.660;9.126;2023-11-18T09:43:38;3.35;;;3.05;;
34403;SDS011;23116;47.660;9.126;2023-11-18T09:46:15;3.15;;;2.85;;
34403;SDS011;23116;47.660;9.126;2023-11-18T09:48:51;3.20;;;3.00;;
34403;SDS011;23116;47.660;9.126;2023-11-18T09:51:28;3.00;;;2.67;;
34403;SDS011;23116;47.660;9.126;2023-11-18T09:54:16;3.95;;;3.05;;
34403;SDS011;23116;47.660;9.126;2023-11-18T10:00:07;3.95;;;3.65;;
34403;SDS011;23116;47.660;9.126;2023-11-18T10:02:51;5.90;;;3.38;;
34403;SDS011;23116;47.660;9.126;2023-11-18T10:05:20;3.55;;;3.25;;
34403;SDS011;23116;47.660;9.126;2023-11-18T10:07:50;3.30;;;3.03;;
34403;SDS011;23116;47.660;9.126;2023-11-18T10:10:17;3.10;;;2.90;;
34403;SDS011;23116;47.660;9.126;2023-11-18T10:12:49;3.50;;;3.20;;
34403;SDS011;23116;47.660;9.126;2023-11-18T10:15:23;4.03;;;3.70;;
34403;SDS011;23116;47.660;9.126;2023-11-18T10:20:48;3.55;;;3.25;;
34403;SDS011;23116;47.660;9.126;2023-11-18T10:23:20;3.50;;;3.20;;
34403;SDS011;23116;47.660;9.126;2023-11-18T10:25:49;3.28;;;3.08;;
34403;SDS011;23116;47.660;9.126;2023-11-18T10:28:28;5.20;;;3.75;;
34403;SDS011;23116;47.660;9.126;2023-11-18T10:31:03;3.30;;;3.10;;
34403;SDS011;23116;47.660;9.126;2023-11-18T10:33:35;3.25;;;3.03;;
34403;SDS011;23116;47.660;9.126;2023-11-18T10:36:03;3.38;;;3.15;;
34403;SDS011;23116;47.660;9.126;2023-11-18T10:38:38;3.78;;;3.22;;
34403;SDS011;23116;47.660;9.126;2023-11-18T10:41:14;2.92;;;2.72;;
34403;SDS011;23116;47.660;9.126;2023-11-18T10:43:44;3.08;;;2.88;;
34403;SDS011;23116;47.660;9.126;2023-11-18T10:46:13;3.55;;;3.28;;
34403;SDS011;23116;47.660;9.126;2023-11-18T10:48:50;3.28;;;2.97;;
34403;SDS011;23116;47.660;9.126;2023-11-18T10:51:17;3.38;;;3.08;;
34403;SDS011;23116;47.660;9.126;2023-11-18T10:53:49;3.03;;;2.80;;
34403;SDS011;23116;47.660;9.126;2023-11-18T10:56:23;2.95;;;2.75;;
34403;SDS011;23116;47.660;9.126;2023-11-18T10:59:12;3.00;;;2.70;;
34403;SDS011;23116;47.660;9.126;2023-11-18T11:01:42;3.85;;;3.17;;
34403;SDS011;23116;47.660;9.126;2023-11-18T11:04:10;2.72;;;2.53;;
34403;SDS011;23116;47.660;9.126;2023-11-18T11:06:41;3.35;;;3.05;;
34403;SDS011;23116;47.660;9.126;2023-11-18T11:09:18;2.97;;;2.78;;
34403;SDS011;23116;47.660;9.126;2023-11-18T11:11:59;2.95;;;2.65;;
34403;SDS011;23116;47.660;9.126;2023-11-18T11:14:35;2.90;;;2.70;;
34403;SDS011;23116;47.660;9.126;2023-11-18T11:17:15;3.35;;;2.92;;
34403;SDS011;23116;47.660;9.126;2023-11-18T11:19:55;2.65;;;2.45;;
34403;SDS011;23116;47.660;9.126;2023-11-18T11:23:10;2.97;;;2.78;;
34403;SDS011;23116;47.660;9.126;2023-11-18T11:26:13;3.08;;;2.80;;
34403;SDS011;23116;47.660;9.126;2023-11-18T11:29:36;2.83;;;2.63;;
34403;SDS011;23116;47.660;9.126;2023-11-18T11:32:00;2.90;;;2.70;;
34403;SDS011;23116;47.660;9.126;2023-11-18T11:35:01;2.85;;;2.65;;
34403;SDS011;23116;47.660;9.126;2023-11-18T11:37:33;2.88;;;2.60;;
34403;SDS011;23116;47.660;9.126;2023-11-18T11:40:00;3.10;;;2.75;;
34403;SDS011;23116;47.660;9.126;2023-11-18T11:42:32;2.75;;;2.55;;
34403;SDS011;23116;47.660;9.126;2023-11-18T11:44:59;2.70;;;2.50;;
34403;SDS011;23116;47.660;9.126;2023-11-18T11:47:28;3.13;;;2.80;;
34403;SDS011;23116;47.660;9.126;2023-11-18T11:50:13;2.63;;;2.42;;
34403;SDS011;23116;47.660;9.126;2023-11-18T11:52:58;2.47;;;2.28;;
34403;SDS011;23116;47.660;9.126;2023-11-18T11:55:38;1.92;;;1.83;;
34403;SDS011;23116;47.660;9.126;2023-11-18T11:58:29;2.50;;;2.30;;
34403;SDS011;23116;47.660;9.126;2023-11-18T12:01:14;3.20;;;2.90;;
34403;SDS011;23116;47.660;9.126;2023-11-18T12:03:59;2.80;;;2.60;;
34403;SDS011;23116;47.660;9.126;2023-11-18T12:06:44;2.90;;;2.70;;
34403;SDS011;23116;47.660;9.126;2023-11-18T12:09:13;3.15;;;2.85;;
34403;SDS011;23116;47.660;9.126;2023-11-18T12:11:46;2.92;;;2.63;;
34403;SDS011;23116;47.660;9.126;2023-11-18T12:14:14;2.67;;;2.53;;
34403;SDS011;23116;47.660;9.126;2023-11-18T12:17:00;2.67;;;2.47;;
34403;SDS011;23116;47.660;9.126;2023-11-18T12:19:38;2.95;;;2.65;;
34403;SDS011;23116;47.660;9.126;2023-11-18T12:22:12;2.80;;;2.60;;
34403;SDS011;23116;47.660;9.126;2023-11-18T12:27:56;2.80;;;2.60;;
34403;SDS011;23116;47.660;9.126;2023-11-18T12:33:04;3.40;;;3.10;;
34403;SDS011;23116;47.660;9.126;2023-11-18T12:36:07;3.22;;;2.95;;
34403;SDS011;23116;47.660;9.126;2023-11-18T12:41:23;3.03;;;2.83;;
34403;SDS011;23116;47.660;9.126;2023-11-18T12:44:16;2.93;;;2.73;;
34403;SDS011;23116;47.660;9.126;2023-11-18T12:47:01;3.17;;;2.88;;
34403;SDS011;23116;47.660;9.126;2023-11-18T12:49:49;2.75;;;2.55;;
34403;SDS011;23116;47.660;9.126;2023-11-18T12:52:20;2.63;;;2.42;;
34403;SDS011;23116;47.660;9.126;2023-11-18T12:54:48;2.65;;;2.45;;
34403;SDS011;23116;47.660;9.126;2023-11-18T12:57:26;2.83;;;2.47;;
34403;SDS011;23116;47.660;9.126;2023-11-18T12:59:56;2.55;;;2.30;;
34403;SDS011;23116;47.660;9.126;2023-11-18T13:02:23;2.65;;;2.42;;
34403;SDS011;23116;47.660;9.126;2023-11-18T13:04:50;2.45;;;2.25;;
34403;SDS011;23116;47.660;9.126;2023-11-18T13:07:20;2.85;;;2.50;;
34403;SDS011;23116;47.660;9.126;2023-11-18T13:09:48;2.63;;;2.42;;
34403;SDS011;23116;47.660;9.126;2023-11-18T13:12:15;2.53;;;2.30;;
34403;SDS011;23116;47.660;9.126;2023-11-18T13:14:45;2.40;;;2.20;;
34403;SDS011;23116;47.660;9.126;2023-11-18T13:17:13;2.25;;;2.10;;
34403;SDS011;23116;47.660;9.126;2023-11-18T13:19:41;2.72;;;2.53;;
34403;SDS011;23116;47.660;9.126;2023-11-18T13:22:09;2.38;;;2.17;;
34403;SDS011;23116;47.660;9.126;2023-11-18T13:24:39;2.65;;;2.45;;
34403;SDS011;23116;47.660;9.126;2023-11-18T13:27:11;2.35;;;2.10;;
34403;SDS011;23116;47.660;9.126;2023-11-18T13:29:44;2.60;;;2.40;;
34403;SDS011;23116;47.660;9.126;2023-11-18T13:32:16;2.67;;;2.47;;
34403;SDS011;23116;47.660;9.126;2023-11-18T13:34:48;2.90;;;2.70;;
34403;SDS011;23116;47.660;9.126;2023-11-18T13:37:15;3.42;;;3.13;;
34403;SDS011;23116;47.660;9.126;2023-11-18T13:39:56;3.42;;;2.97;;
34403;SDS011;23116;47.660;9.126;2023-11-18T13:42:26;3.03;;;2.80;;
34403;SDS011;23116;47.660;9.126;2023-11-18T13:44:53;3.47;;;3.28;;
34403;SDS011;23116;47.660;9.126;2023-11-18T13:47:34;4.05;;;3.30;;
34403;SDS011;23116;47.660;9.126;2023-11-18T13:50:05;3.10;;;2.80;;
34403;SDS011;23116;47.660;9.126;2023-11-18T13:52:34;3.13;;;2.93;;
34403;SDS011;23116;47.660;9.126;2023-11-18T13:55:05;3.40;;;3.05;;
34403;SDS011;23116;47.660;9.126;2023-11-18T13:57:32;2.95;;;2.75;;
34403;SDS011;23116;47.660;9.126;2023-11-18T13:59:59;3.45;;;3.15;;
34403;SDS011;23116;47.660;9.126;2023-11-18T14:02:27;3.53;;;3.22;;
34403;SDS011;23116;47.660;9.126;2023-11-18T14:04:54;3.50;;;3.20;;
34403;SDS011;23116;47.660;9.126;2023-11-18T14:07:22;3.15;;;2.95;;
34403;SDS011;23116;47.660;9.126;2023-11-18T14:09:49;3.58;;;3.28;;
34403;SDS011;23116;47.660;9.126;2023-11-18T14:12:19;3.03;;;2.72;;
34403;SDS011;23116;47.660;9.126;2023-11-18T14:14:47;2.85;;;2.60;;
34403;SDS011;23116;47.660;9.126;2023-11-18T14:17:14;3.17;;;2.97;;
34403;SDS011;23116;47.660;9.126;2023-11-18T14:19:41;2.65;;;2.45;;
34403;SDS011;23116;47.660;9.126;2023-11-18T14:22:08;3.10;;;2.90;;
34403;SDS011;23116;47.660;9.126;2023-11-18T14:24:34;3.47;;;3.17;;
34403;SDS011;23116;47.660;9.126;2023-11-18T14:27:01;2.80;;;2.60;;
34403;SDS011;23116;47.660;9.126;2023-11-18T14:29:29;3.17;;;2.88;;
34403;SDS011;23116;47.660;9.126;2023-11-18T14:31:56;2.58;;;2.38;;
34403;SDS011;23116;47.660;9.126;2023-11-18T14:34:23;3.30;;;3.00;;
34403;SDS011;23116;47.660;9.126;2023-11-18T14:36:50;4.85;;;4.10;;
34403;SDS011;23116;47.660;9.126;2023-11-18T14:39:17;4.63;;;4.20;;
34403;SDS011;23116;47.660;9.126;2023-11-18T14:41:47;3.25;;;2.95;;
34403;SDS011;23116;47.660;9.126;2023-11-18T14:44:14;3.50;;;3.25;;
34403;SDS011;23116;47.660;9.126;2023-11-18T14:46:42;3.28;;;2.97;;
34403;SDS011;23116;47.660;9.126;2023-11-18T14:49:10;3.00;;;2.80;;
34403;SDS011;23116;47.660;9.126;2023-11-18T14:51:37;3.40;;;3.10;;
34403;SDS011;23116;47.660;9.126;2023-11-18T14:54:03;3.08;;;2.88;;
34403;SDS011;23116;47.660;9.126;2023-11-18T14:56:33;3.28;;;2.83;;
34403;SDS011;23116;47.660;9.126;2023-11-18T14:59:00;3.75;;;2.83;;
34403;SDS011;23116;47.660;9.126;2023-11-18T15:01:26;4.22;;;3.17;;
34403;SDS011;23116;47.660;9.126;2023-11-18T15:03:54;2.30;;;2.10;;
34403;SDS011;23116;47.660;9.126;2023-11-18T15:06:25;2.03;;;1.90;;
34403;SDS011;23116;47.660;9.126;2023-11-18T15:08:52;1.92;;;1.73;;
34403;SDS011;23116;47.660;9.126;2023-11-18T15:11:22;1.63;;;1.45;;
34403;SDS011;23116;47.660;9.126;2023-11-18T15:13:49;1.50;;;1.40;;
34403;SDS011;23116;47.660;9.126;2023-11-18T15:16:18;1.52;;;1.42;;
34403;SDS011;23116;47.660;9.126;2023-11-18T15:18:44;1.50;;;1.40;;
34403;SDS011;23116;47.660;9.126;2023-11-18T15:21:17;1.80;;;1.70;;
34403;SDS011;23116;47.660;9.126;2023-11-18T15:23:43;1.70;;;1.60;;
34403;SDS011;23116;47.660;9.126;2023-11-18T15:26:10;1.52;;;1.42;;
34403;SDS011;23116;47.660;9.126;2023-11-18T15:28:37;1.80;;;1.70;;
34403;SDS011;23116;47.660;9.126;2023-11-18T15:31:03;1.85;;;1.67;;
34403;SDS011;23116;47.660;9.126;2023-11-18T15:33:30;1.80;;;1.70;;
34403;SDS011;23116;47.660;9.126;2023-11-18T15:35:57;2.10;;;1.90;;